Time;durP1;ratioP1;P1;durP2;ratioP2;P2;SDS_P1;SDS_P2;PMS_P1;PMS_P2;Temp;Humidity;BMP_temperature;BMP_pressure;BME280_temperature;BME280_humidity;BME280_pressure;Samples;Min_cycle;Max_cycle;Signal;HPM_P1;HPM_P2
2021/03/12 00:01:16;;;;;;;8.35;3.15;;;7.00;99.90;;;;;;5067648;28;20083;-82
2021/03/12 00:03:42;;;;;;;9.25;3.22;;;7.00;99.90;;;;;;5065621;28;20109;-81
2021/03/12 00:06:10;;;;;;;6.75;2.97;;;7.00;99.90;;;;;;5061359;28;20471;-81
2021/03/12 00:08:38;;;;;;;10.88;2.78;;;6.90;99.90;;;;;;5061836;28;20167;-81
2021/03/12 00:11:06;;;;;;;11.35;4.55;;;6.90;99.90;;;;;;5062626;28;20227;-81
2021/03/12 00:13:33;;;;;;;7.65;3.03;;;6.80;99.90;;;;;;5058010;28;20656;-80
2021/03/12 00:16:00;;;;;;;9.85;3.08;;;6.70;99.90;;;;;;5063455;28;20570;-80
2021/03/12 00:18:29;;;;;;;10.02;3.58;;;6.70;99.90;;;;;;5061671;28;20075;-81
2021/03/12 00:20:55;;;;;;;7.60;3.40;;;6.60;99.90;;;;;;5066235;28;20072;-80
2021/03/12 00:23:21;;;;;;;10.95;3.47;;;6.60;99.90;;;;;;5064282;28;20131;-81
2021/03/12 00:25:48;;;;;;;10.00;3.25;;;6.60;99.90;;;;;;5063070;28;20132;-80
2021/03/12 00:28:17;;;;;;;10.15;3.28;;;6.60;99.90;;;;;;5062649;28;20045;-81
2021/03/12 00:30:45;;;;;;;10.15;3.22;;;6.60;99.90;;;;;;5061461;28;20080;-78
2021/03/12 00:33:14;;;;;;;8.05;3.30;;;6.60;99.90;;;;;;5060376;28;20088;-81
2021/03/12 00:35:42;;;;;;;12.68;3.90;;;6.60;99.90;;;;;;5058297;28;20072;-81
2021/03/12 00:38:09;;;;;;;6.63;3.33;;;6.70;99.90;;;;;;5067585;28;20067;-81
2021/03/12 00:40:38;;;;;;;6.60;2.85;;;6.80;99.90;;;;;;5067400;28;20049;-81
2021/03/12 00:43:04;;;;;;;12.88;3.25;;;6.90;99.90;;;;;;5063412;28;20081;-81
2021/03/12 00:45:35;;;;;;;9.15;3.78;;;6.90;99.90;;;;;;5063394;28;20104;-80
2021/03/12 00:48:01;;;;;;;9.95;3.30;;;6.90;99.90;;;;;;5056726;28;20511;-81
2021/03/12 00:50:33;;;;;;;7.57;3.10;;;6.90;99.90;;;;;;5056898;28;20080;-80
2021/03/12 00:53:00;;;;;;;13.13;3.70;;;6.70;99.90;;;;;;5060959;28;20049;-80
2021/03/12 00:55:26;;;;;;;10.27;3.75;;;6.60;99.90;;;;;;5056584;28;20049;-80
2021/03/12 00:57:53;;;;;;;5.97;2.75;;;6.50;99.90;;;;;;5054379;28;20116;-79
2021/03/12 01:00:21;;;;;;;11.23;3.58;;;6.40;99.90;;;;;;5055643;28;20480;-80
2021/03/12 01:02:48;;;;;;;13.65;4.03;;;6.40;99.90;;;;;;5065725;28;20048;-78
2021/03/12 01:05:15;;;;;;;8.60;3.70;;;6.40;99.90;;;;;;5069516;28;20091;-79
2021/03/12 01:07:41;;;;;;;9.55;3.85;;;6.30;99.90;;;;;;5067475;28;20056;-79
2021/03/12 01:10:08;;;;;;;8.85;4.03;;;6.20;99.90;;;;;;5069071;28;20063;-79
2021/03/12 01:12:35;;;;;;;8.95;3.25;;;6.10;99.90;;;;;;5070099;28;20080;-79
2021/03/12 01:15:03;;;;;;;7.45;2.92;;;6.10;99.90;;;;;;5064782;28;20068;-79
2021/03/12 01:17:29;;;;;;;10.27;3.58;;;6.10;99.90;;;;;;5064858;28;20049;-79
2021/03/12 01:19:56;;;;;;;12.18;3.75;;;6.10;99.90;;;;;;5068893;28;20049;-79
2021/03/12 01:22:23;;;;;;;10.25;3.58;;;6.10;99.90;;;;;;5068236;28;20056;-79
2021/03/12 01:24:49;;;;;;;13.20;4.05;;;6.20;99.90;;;;;;5062049;28;20128;-80
2021/03/12 01:27:15;;;;;;;11.30;3.95;;;6.30;99.90;;;;;;5059089;28;20064;-82
2021/03/12 01:29:42;;;;;;;9.10;3.35;;;6.30;99.90;;;;;;5061528;28;20140;-82
2021/03/12 01:32:09;;;;;;;7.18;3.47;;;6.40;99.90;;;;;;5062598;28;20049;-82
2021/03/12 01:34:35;;;;;;;8.88;3.25;;;6.50;99.90;;;;;;5063860;28;20051;-81
2021/03/12 01:37:02;;;;;;;8.75;4.03;;;6.50;99.90;;;;;;5063622;28;20071;-80
2021/03/12 01:39:29;;;;;;;7.20;3.30;;;6.60;99.90;;;;;;5062563;28;20109;-81
2021/03/12 01:41:55;;;;;;;9.27;4.57;;;6.60;99.90;;;;;;5060280;28;20132;-81
2021/03/12 01:44:22;;;;;;;10.63;4.10;;;6.70;99.90;;;;;;5059597;28;20510;-81
2021/03/12 01:46:48;;;;;;;9.93;3.97;;;6.70;99.90;;;;;;5059575;28;20613;-80
2021/03/12 01:49:14;;;;;;;10.23;3.80;;;6.70;99.90;;;;;;5059857;28;20080;-81
2021/03/12 01:51:41;;;;;;;12.75;3.63;;;6.80;99.90;;;;;;5060567;28;20135;-81
2021/03/12 01:54:08;;;;;;;9.52;3.65;;;6.80;99.90;;;;;;5059013;28;20104;-82
2021/03/12 01:56:34;;;;;;;8.18;3.80;;;6.80;99.90;;;;;;5059639;28;20061;-81
2021/03/12 01:59:01;;;;;;;17.02;4.40;;;6.70;99.90;;;;;;5060000;28;20056;-79
2021/03/12 02:01:27;;;;;;;11.55;3.92;;;6.70;99.90;;;;;;5059710;28;20073;-80
2021/03/12 02:03:56;;;;;;;10.38;3.80;;;6.60;99.90;;;;;;5063015;28;20087;-80
2021/03/12 02:06:23;;;;;;;11.73;4.63;;;6.60;99.90;;;;;;5062311;28;20117;-80
2021/03/12 02:08:49;;;;;;;12.82;4.35;;;6.60;99.90;;;;;;5061040;28;20136;-80
2021/03/12 02:11:20;;;;;;;11.10;4.63;;;6.60;99.90;;;;;;5058933;28;20131;-80
2021/03/12 02:13:52;;;;;;;8.55;4.03;;;6.60;99.90;;;;;;5061648;28;20221;-79
2021/03/12 02:16:21;;;;;;;;;;;6.50;99.90;;;;;;5063234;28;20128;-80
2021/03/12 02:18:57;;;;;;;16.08;4.47;;;6.50;99.90;;;;;;5062041;28;20008;-79
2021/03/12 02:21:31;;;;;;;15.85;4.65;;;6.40;99.90;;;;;;5062705;28;20059;-81
2021/03/12 02:24:06;;;;;;;18.83;5.13;;;6.50;99.90;;;;;;5062759;28;20072;-81
2021/03/12 02:27:10;;;;;;;11.57;3.90;;;6.50;99.90;;;;;;5061668;28;20440;-81
2021/03/12 02:29:41;;;;;;;;;;;6.50;99.90;;;;;;5003621;28;20097;-80
2021/03/12 02:32:10;;;;;;;19.52;4.78;;;6.50;99.90;;;;;;4999326;28;20411;-80
2021/03/12 02:34:39;;;;;;;15.27;5.05;;;6.50;99.90;;;;;;5027532;28;20127;-80
2021/03/12 02:37:08;;;;;;;18.15;5.05;;;6.50;99.90;;;;;;5061737;28;20087;-80
2021/03/12 02:39:37;;;;;;;12.68;4.63;;;6.50;99.90;;;;;;5061232;28;20049;-80
2021/03/12 02:42:04;;;;;;;16.92;4.43;;;6.50;99.90;;;;;;5064367;28;20112;-80
2021/03/12 02:44:33;;;;;;;16.23;4.75;;;6.60;99.90;;;;;;5057927;28;20045;-82
2021/03/12 02:47:07;;;;;;;12.90;4.22;;;6.60;99.90;;;;;;5062053;28;20112;-81
2021/03/12 02:49:35;;;;;;;16.98;4.40;;;6.60;99.90;;;;;;5064674;28;20091;-81
2021/03/12 02:52:02;;;;;;;19.33;4.93;;;6.60;99.90;;;;;;5062217;28;20091;-81
2021/03/12 02:54:28;;;;;;;15.52;4.10;;;6.60;99.90;;;;;;5061829;28;20080;-81
2021/03/12 02:56:55;;;;;;;14.65;4.38;;;6.70;99.90;;;;;;5066629;28;20053;-80
2021/03/12 02:59:21;;;;;;;13.57;4.22;;;6.70;99.90;;;;;;5059407;28;20423;-78
2021/03/12 03:01:51;;;;;;;11.82;4.05;;;6.70;99.90;;;;;;5057096;28;20460;-79
2021/03/12 03:04:19;;;;;;;15.13;4.20;;;6.70;99.90;;;;;;5057808;28;20549;-80
2021/03/12 03:06:46;;;;;;;16.08;4.07;;;6.70;99.90;;;;;;5057793;28;20049;-80
2021/03/12 03:09:13;;;;;;;13.80;4.03;;;6.70;99.90;;;;;;5058191;28;20076;-79
2021/03/12 03:11:40;;;;;;;14.30;3.85;;;6.70;99.90;;;;;;5058599;28;20219;-79
2021/03/12 03:14:07;;;;;;;14.23;4.57;;;6.70;99.90;;;;;;5063335;28;20059;-80
2021/03/12 03:16:36;;;;;;;15.05;3.80;;;6.70;99.90;;;;;;5063847;28;20087;-78
2021/03/12 03:19:04;;;;;;;13.05;4.07;;;6.70;99.90;;;;;;5060851;28;20076;-80
2021/03/12 03:21:32;;;;;;;11.27;3.88;;;6.70;99.90;;;;;;5064373;28;20084;-80
2021/03/12 03:23:59;;;;;;;14.50;3.85;;;6.70;99.90;;;;;;5066091;28;20570;-80
2021/03/12 03:26:25;;;;;;;16.60;4.53;;;6.70;99.90;;;;;;5065399;28;20109;-81
2021/03/12 03:28:52;;;;;;;16.83;4.40;;;6.70;99.90;;;;;;5067788;28;20041;-81
2021/03/12 03:31:20;;;;;;;14.18;4.30;;;6.80;99.90;;;;;;5067895;28;20044;-81
2021/03/12 03:33:47;;;;;;;17.15;3.97;;;6.70;99.90;;;;;;5061172;28;20087;-81
2021/03/12 03:36:14;;;;;;;12.20;3.92;;;6.70;99.90;;;;;;5060199;28;20108;-81
2021/03/12 03:38:42;;;;;;;11.13;3.95;;;6.70;99.90;;;;;;5059690;28;20481;-81
2021/03/12 03:41:12;;;;;;;11.30;4.05;;;6.70;99.90;;;;;;5061577;28;20080;-82
2021/03/12 03:43:41;;;;;;;10.18;3.83;;;6.70;99.90;;;;;;5061026;28;20183;-80
2021/03/12 03:46:10;;;;;;;21.27;4.55;;;6.70;99.90;;;;;;5058194;28;20587;-81
2021/03/12 03:48:38;;;;;;;17.60;4.32;;;6.70;99.90;;;;;;5059340;28;20060;-81
2021/03/12 03:51:07;;;;;;;13.10;3.58;;;6.70;99.90;;;;;;5061573;28;20060;-79
2021/03/12 03:53:35;;;;;;;14.68;3.80;;;6.80;99.90;;;;;;5058265;28;20057;-80
2021/03/12 03:56:04;;;;;;;15.38;4.00;;;6.80;99.90;;;;;;5056763;28;20080;-80
2021/03/12 03:58:32;;;;;;;13.50;3.90;;;6.70;99.90;;;;;;5057424;28;20178;-81
2021/03/12 04:00:59;;;;;;;16.63;4.80;;;6.80;99.90;;;;;;5058495;28;20045;-82
2021/03/12 04:03:26;;;;;;;21.13;4.30;;;6.80;99.90;;;;;;5058623;28;20049;-81
2021/03/12 04:05:58;;;;;;;13.68;3.80;;;6.80;99.90;;;;;;5059959;28;20053;-81
2021/03/12 04:08:25;;;;;;;19.73;4.28;;;6.80;99.90;;;;;;5059050;28;20045;-81
2021/03/12 04:10:55;;;;;;;14.63;4.45;;;6.80;99.90;;;;;;5060545;28;20118;-81
2021/03/12 04:13:24;;;;;;;12.98;4.43;;;6.80;99.90;;;;;;5060097;28;20045;-80
2021/03/12 04:15:51;;;;;;;15.73;4.78;;;6.70;99.90;;;;;;5059240;28;20076;-81
2021/03/12 04:18:19;;;;;;;19.27;4.47;;;6.70;99.90;;;;;;5059464;28;20045;-81
2021/03/12 04:20:46;;;;;;;15.77;4.25;;;6.70;99.90;;;;;;5060215;28;20056;-81
2021/03/12 04:23:13;;;;;;;14.95;4.35;;;6.70;99.90;;;;;;5062906;28;20059;-80
2021/03/12 04:25:41;;;;;;;12.63;4.18;;;6.80;99.90;;;;;;5061111;28;20049;-80
2021/03/12 04:28:08;;;;;;;12.05;4.20;;;6.70;99.90;;;;;;5061112;28;20079;-82
2021/03/12 04:30:36;;;;;;;15.75;4.40;;;6.70;99.90;;;;;;5061156;28;20057;-81
2021/03/12 04:33:02;;;;;;;12.52;4.47;;;6.70;99.90;;;;;;5059321;28;20045;-80
2021/03/12 04:35:29;;;;;;;18.90;4.55;;;6.70;99.90;;;;;;5061356;28;20052;-80
2021/03/12 04:37:56;;;;;;;16.30;4.68;;;6.70;99.90;;;;;;5062882;28;20065;-80
2021/03/12 04:40:23;;;;;;;16.05;4.35;;;6.60;99.90;;;;;;5066337;28;20099;-80
2021/03/12 04:42:50;;;;;;;20.13;4.75;;;6.50;99.90;;;;;;5061335;28;20055;-80
2021/03/12 04:45:26;;;;;;;13.65;4.40;;;6.50;99.90;;;;;;5061989;28;20076;-81
2021/03/12 04:47:56;;;;;;;16.52;4.07;;;6.50;99.90;;;;;;5076682;22;20045;-76
2021/03/12 04:50:24;;;;;;;16.38;4.00;;;6.50;99.90;;;;;;5054933;28;20458;-77
2021/03/12 04:52:54;;;;;;;18.20;4.63;;;6.50;99.90;;;;;;5055073;28;20061;-77
2021/03/12 04:55:20;;;;;;;15.23;4.20;;;6.50;99.90;;;;;;5055069;28;20049;-77
2021/03/12 04:57:47;;;;;;;14.35;4.47;;;6.50;99.90;;;;;;5054616;28;20085;-77
2021/03/12 05:00:15;;;;;;;15.65;4.78;;;6.60;99.90;;;;;;5055913;28;20136;-77
2021/03/12 05:02:41;;;;;;;24.40;4.63;;;6.50;99.90;;;;;;5055585;28;20179;-78
2021/03/12 05:05:10;;;;;;;16.83;4.47;;;6.50;99.90;;;;;;5055904;28;20132;-78
2021/03/12 05:07:38;;;;;;;17.52;4.57;;;6.50;99.90;;;;;;5056267;28;20055;-78
2021/03/12 05:10:07;;;;;;;15.27;4.15;;;6.50;99.90;;;;;;5056358;28;20136;-78
2021/03/12 05:12:34;;;;;;;18.40;4.75;;;6.60;99.90;;;;;;5055255;28;20084;-77
2021/03/12 05:15:00;;;;;;;14.77;5.00;;;6.60;99.90;;;;;;5054958;28;20045;-79
2021/03/12 05:17:27;;;;;;;11.07;3.78;;;6.60;99.90;;;;;;5056086;28;20486;-78
2021/03/12 05:19:54;;;;;;;21.55;4.70;;;6.60;99.90;;;;;;5058499;28;20131;-80
2021/03/12 05:22:21;;;;;;;14.30;4.03;;;6.60;99.90;;;;;;5057638;28;20140;-79
2021/03/12 05:24:47;;;;;;;14.15;3.63;;;6.60;99.90;;;;;;5057096;28;20049;-78
2021/03/12 05:27:14;;;;;;;16.13;3.90;;;6.60;99.90;;;;;;5055244;28;20427;-77
2021/03/12 05:29:40;;;;;;;12.48;4.20;;;6.60;99.90;;;;;;5056405;28;20053;-78
2021/03/12 05:32:07;;;;;;;14.10;4.10;;;6.50;99.90;;;;;;5056324;28;20053;-77
2021/03/12 05:34:33;;;;;;;13.40;3.45;;;6.50;99.90;;;;;;5054716;28;20041;-77
2021/03/12 05:37:00;;;;;;;18.55;4.13;;;6.40;99.90;;;;;;5054367;28;20049;-77
2021/03/12 05:39:27;;;;;;;18.90;5.65;;;6.40;99.90;;;;;;5054960;28;20052;-78
2021/03/12 05:41:54;;;;;;;15.32;3.70;;;6.40;99.90;;;;;;5056005;28;20578;-78
2021/03/12 05:44:21;;;;;;;13.88;3.75;;;6.30;99.90;;;;;;5055373;28;20136;-78
2021/03/12 05:46:47;;;;;;;12.85;3.60;;;6.40;99.90;;;;;;5054457;28;20100;-77
2021/03/12 05:49:14;;;;;;;14.57;4.38;;;6.40;99.90;;;;;;5057171;28;20045;-77
2021/03/12 05:51:41;;;;;;;12.13;4.47;;;6.40;99.90;;;;;;5055188;28;20048;-77
2021/03/12 05:54:08;;;;;;;14.00;4.20;;;6.40;99.90;;;;;;5054167;28;20055;-77
2021/03/12 05:56:36;;;;;;;16.58;4.07;;;6.50;99.90;;;;;;5054323;28;20053;-78
2021/03/12 05:59:04;;;;;;;13.38;4.10;;;6.50;99.90;;;;;;5055066;28;20132;-77
2021/03/12 06:01:30;;;;;;;15.05;4.32;;;6.50;99.90;;;;;;5055040;28;20421;-77
2021/03/12 06:03:57;;;;;;;18.35;4.20;;;6.50;99.90;;;;;;5054529;28;20049;-78
2021/03/12 06:06:23;;;;;;;17.67;4.60;;;6.50;99.90;;;;;;5053872;28;20127;-78
2021/03/12 06:08:50;;;;;;;15.40;4.38;;;6.50;99.90;;;;;;5055204;28;20132;-78
2021/03/12 06:11:16;;;;;;;15.45;4.68;;;6.50;99.90;;;;;;5054964;28;20049;-78
2021/03/12 06:13:50;;;;;;;13.07;4.72;;;6.50;99.90;;;;;;5054892;28;20672;-78
2021/03/12 06:16:24;;;;;;;13.80;4.13;;;6.50;99.90;;;;;;5053503;28;20140;-77
2021/03/12 06:19:09;;;;;;;15.30;4.53;;;6.50;99.90;;;;;;5054233;28;20139;-77
2021/03/12 06:21:36;;;;;;;19.80;4.60;;;6.50;99.90;;;;;;5055009;28;20088;-78
2021/03/12 06:24:02;;;;;;;15.23;4.20;;;6.60;99.90;;;;;;5054289;28;20533;-78
2021/03/12 06:26:44;;;;;;;14.10;4.07;;;6.60;99.90;;;;;;5053069;28;20044;-77
2021/03/12 06:29:11;;;;;;;11.93;4.38;;;6.60;99.90;;;;;;5053624;28;20061;-78
2021/03/12 06:31:37;;;;;;;17.40;4.82;;;6.70;99.90;;;;;;5053164;28;20562;-76
2021/03/12 06:34:11;;;;;;;21.38;5.22;;;6.70;99.90;;;;;;5053713;28;20087;-74
2021/03/12 06:36:37;;;;;;;17.20;4.30;;;6.70;99.90;;;;;;5053869;28;20178;-78
2021/03/12 06:39:04;;;;;;;12.07;4.00;;;6.70;99.90;;;;;;5055961;28;20059;-78
2021/03/12 06:41:37;;;;;;;16.63;4.20;;;6.80;99.90;;;;;;5054998;28;20053;-78
2021/03/12 06:44:26;;;;;;;21.60;9.00;;;6.80;99.90;;;;;;5055241;28;20128;-79
2021/03/12 06:46:52;;;;;;;14.38;5.00;;;6.90;99.90;;;;;;5055423;28;20087;-78
2021/03/12 06:49:19;;;;;;;15.13;4.50;;;6.90;99.90;;;;;;5055218;28;20132;-79
2021/03/12 06:51:57;;;;;;;16.45;4.82;;;6.90;99.90;;;;;;5057864;28;20045;-80
2021/03/12 06:54:24;;;;;;;14.90;4.03;;;6.90;99.90;;;;;;5056065;28;20110;-78
2021/03/12 06:56:50;;;;;;;16.27;4.43;;;7.00;99.90;;;;;;5053182;28;20621;-78
2021/03/12 06:59:30;;;;;;;15.00;4.35;;;7.00;99.90;;;;;;5052890;28;20604;-78
2021/03/12 07:01:58;;;;;;;17.80;5.15;;;7.10;99.90;;;;;;5055594;28;20080;-79
2021/03/12 07:04:27;;;;;;;13.45;4.07;;;7.10;99.90;;;;;;5054904;28;20113;-79
2021/03/12 07:06:54;;;;;;;18.75;4.80;;;7.20;99.90;;;;;;5056390;28;20049;-81
2021/03/12 07:09:21;;;;;;;13.32;4.43;;;7.20;99.90;;;;;;5057068;28;20075;-79
2021/03/12 07:11:53;;;;;;;15.50;4.32;;;7.30;99.90;;;;;;5058168;28;20162;-79
2021/03/12 07:14:19;;;;;;;13.05;4.20;;;7.30;99.90;;;;;;5055897;28;20067;-78
2021/03/12 07:16:47;;;;;;;11.75;4.15;;;7.40;99.90;;;;;;5053351;28;20057;-78
2021/03/12 07:19:15;;;;;;;14.23;4.05;;;7.50;99.90;;;;;;5054619;28;20080;-80
2021/03/12 07:21:42;;;;;;;10.82;4.25;;;7.60;99.90;;;;;;5055280;28;20087;-78
2021/03/12 07:24:11;;;;;;;13.68;4.30;;;7.70;99.90;;;;;;5055357;28;20415;-79
2021/03/12 07:26:44;;;;;;;20.50;4.63;;;7.80;99.90;;;;;;5056032;28;20826;-80
2021/03/12 07:29:12;;;;;;;17.00;4.65;;;7.90;99.90;;;;;;5057348;28;20113;-81
2021/03/12 07:31:40;;;;;;;12.95;3.90;;;8.00;99.90;;;;;;5059061;28;20048;-80
2021/03/12 07:34:13;;;;;;;17.00;4.63;;;8.20;99.90;;;;;;5059474;28;20052;-80
2021/03/12 07:36:44;;;;;;;10.63;4.03;;;8.50;99.90;;;;;;5058356;28;20087;-82
2021/03/12 07:39:14;;;;;;;13.65;4.00;;;8.70;99.90;;;;;;5057030;28;20072;-82
2021/03/12 07:41:43;;;;;;;17.10;5.80;;;8.90;99.90;;;;;;5056267;28;20112;-82
2021/03/12 07:44:13;;;;;;;16.50;4.50;;;9.20;99.90;;;;;;5059157;28;20041;-82
2021/03/12 07:46:40;;;;;;;17.65;4.75;;;9.40;99.90;;;;;;5060377;28;20394;-82
2021/03/12 07:49:35;;;;;;;15.38;4.38;;;9.50;99.90;;;;;;5066485;28;20063;-81
2021/03/12 07:52:03;;;;;;;13.60;4.80;;;9.70;99.90;;;;;;5068868;28;20045;-81
2021/03/12 07:54:48;;;;;;;15.98;4.47;;;9.90;99.90;;;;;;5060744;28;20069;-81
2021/03/12 07:57:16;;;;;;;12.57;4.25;;;9.80;99.90;;;;;;5057714;28;20519;-81
2021/03/12 07:59:59;;;;;;;19.60;4.30;;;10.00;99.90;;;;;;5058389;28;20139;-81
2021/03/12 08:02:58;;;;;;;11.90;3.88;;;10.30;99.90;;;;;;5057126;28;20462;-81
2021/03/12 08:05:37;;;;;;;15.50;4.63;;;10.50;99.90;;;;;;5055694;28;20048;-81
2021/03/12 08:08:05;;;;;;;15.18;4.30;;;10.40;99.90;;;;;;5055600;28;20052;-79
2021/03/12 08:10:31;;;;;;;14.10;4.63;;;10.20;99.90;;;;;;5059660;28;20048;-80
2021/03/12 08:12:57;;;;;;;10.75;4.10;;;10.20;99.90;;;;;;5066051;28;20136;-81
2021/03/12 08:15:25;;;;;;;16.60;5.57;;;10.00;99.90;;;;;;5064260;28;20132;-80
2021/03/12 08:18:26;;;;;;;18.67;4.60;;;9.80;99.90;;;;;;5062898;28;20570;-79
2021/03/12 08:20:53;;;;;;;13.18;4.80;;;9.50;99.90;;;;;;5060656;28;20052;-80
2021/03/12 08:23:33;;;;;;;18.88;4.30;;;9.30;99.90;;;;;;5063738;28;20135;-81
2021/03/12 08:26:00;;;;;;;17.50;5.03;;;9.20;99.90;;;;;;5061974;28;20422;-79
2021/03/12 08:28:34;;;;;;;15.38;4.35;;;9.10;99.90;;;;;;5063131;28;20617;-81
2021/03/12 08:31:02;;;;;;;16.88;4.78;;;9.00;99.90;;;;;;5062645;28;20139;-80
2021/03/12 08:33:34;;;;;;;13.73;4.32;;;9.10;99.90;;;;;;5062507;28;20131;-80
2021/03/12 08:36:02;;;;;;;12.32;4.25;;;9.00;99.90;;;;;;5061664;28;20135;-79
2021/03/12 08:38:40;;;;;;;19.63;4.45;;;9.00;99.90;;;;;;5061640;28;20422;-80
2021/03/12 08:41:12;;;;;;;17.35;4.50;;;9.10;99.90;;;;;;5060054;28;20056;-79
2021/03/12 08:43:43;;;;;;;19.15;4.75;;;9.10;99.90;;;;;;5061650;28;20064;-80
2021/03/12 08:46:16;;;;;;;17.30;4.05;;;9.10;99.90;;;;;;5061247;28;20140;-79
2021/03/12 08:48:45;;;;;;;15.80;4.60;;;9.10;99.90;;;;;;5061343;28;20099;-79
2021/03/12 08:51:15;;;;;;;18.80;4.60;;;9.10;99.90;;;;;;5061193;28;20059;-79
2021/03/12 08:53:46;;;;;;;16.25;4.10;;;9.10;99.90;;;;;;5060766;28;20107;-78
2021/03/12 08:56:13;;;;;;;13.88;3.97;;;9.20;99.90;;;;;;5060536;28;20053;-80
2021/03/12 08:58:40;;;;;;;16.35;4.63;;;9.20;99.90;;;;;;5059903;28;20107;-79
2021/03/12 09:01:11;;;;;;;13.40;4.38;;;9.30;99.90;;;;;;5059955;28;20057;-78
2021/03/12 09:03:37;;;;;;;15.52;4.47;;;9.20;99.90;;;;;;5063172;28;20105;-80
2021/03/12 09:06:06;;;;;;;17.05;5.47;;;9.10;99.90;;;;;;5063879;28;20559;-81
2021/03/12 09:08:37;;;;;;;18.88;4.40;;;9.10;99.90;;;;;;5058914;28;20527;-79
2021/03/12 09:11:04;;;;;;;21.00;4.60;;;9.20;99.90;;;;;;5055553;28;20045;-79
2021/03/12 09:13:33;;;;;;;18.98;4.35;;;9.20;99.90;;;;;;5060601;28;20140;-80
2021/03/12 09:16:01;;;;;;;14.63;4.40;;;9.20;99.90;;;;;;5062234;28;20099;-80
2021/03/12 09:18:29;;;;;;;14.77;4.55;;;9.40;99.90;;;;;;5064117;28;20055;-80
2021/03/12 09:20:57;;;;;;;16.98;4.63;;;9.40;99.90;;;;;;5065597;28;20130;-82
2021/03/12 09:23:38;;;;;;;16.17;4.22;;;9.40;99.90;;;;;;5061024;28;20186;-80
2021/03/12 09:26:06;;;;;;;12.73;4.70;;;9.50;99.90;;;;;;5059799;28;20049;-80
2021/03/12 09:28:32;;;;;;;14.88;4.20;;;9.50;99.90;;;;;;5060786;28;20117;-81
2021/03/12 09:31:00;;;;;;;17.48;4.47;;;9.50;99.90;;;;;;5061931;28;20044;-80
2021/03/12 09:33:29;;;;;;;14.00;4.22;;;9.60;99.90;;;;;;5062488;28;20252;-80
2021/03/12 09:35:56;;;;;;;15.10;4.68;;;9.80;99.90;;;;;;5062659;28;20507;-80
2021/03/12 09:38:36;;;;;;;14.88;3.70;;;9.90;99.90;;;;;;5059978;28;20055;-80
2021/03/12 09:41:17;;;;;;;12.38;4.07;;;10.00;99.90;;;;;;5059959;28;20103;-81
2021/03/12 09:43:45;;;;;;;16.33;3.95;;;10.00;99.90;;;;;;5057623;28;20248;-80
2021/03/12 09:46:15;;;;;;;12.82;3.95;;;10.20;99.90;;;;;;5044726;28;20507;-78
2021/03/12 09:48:43;;;;;;;15.30;3.80;;;10.40;99.90;;;;;;5034598;28;20050;-79
2021/03/12 09:51:11;;;;;;;12.82;4.85;;;10.60;99.90;;;;;;5051818;28;20081;-78
2021/03/12 09:53:37;;;;;;;11.85;4.03;;;10.80;99.90;;;;;;5057181;28;20109;-80
2021/03/12 09:56:04;;;;;;;11.77;4.05;;;10.90;99.90;;;;;;5057010;28;20499;-79
2021/03/12 09:58:32;;;;;;;14.80;4.18;;;11.00;99.90;;;;;;5058504;28;20132;-80
2021/03/12 10:01:12;;;;;;;12.85;3.83;;;11.10;99.90;;;;;;5077884;28;20136;-80
2021/03/12 10:03:38;;;;;;;10.77;3.92;;;11.10;99.90;;;;;;5077645;28;20422;-79
2021/03/12 10:06:09;;;;;;;12.38;3.67;;;10.90;99.90;;;;;;5078153;28;20205;-79
2021/03/12 10:09:03;;;;;;;14.55;4.28;;;10.80;99.90;;;;;;5078255;28;20049;-79
2021/03/12 10:11:45;;;;;;;14.48;3.88;;;10.80;99.90;;;;;;5079613;28;20083;-78
2021/03/12 10:14:34;;;;;;;14.13;3.75;;;10.50;99.90;;;;;;5078690;28;20469;-81
2021/03/12 10:17:08;;;;;;;13.05;3.75;;;10.30;99.90;;;;;;5078327;28;20127;-79
2021/03/12 10:19:51;;;;;;;14.40;4.65;;;10.30;99.90;;;;;;5078201;28;20080;-79
2021/03/12 10:22:20;;;;;;;11.00;4.40;;;10.20;99.90;;;;;;5078142;28;20053;-79
2021/03/12 10:24:48;;;;;;;12.40;4.20;;;10.20;99.90;;;;;;5078682;28;20044;-79
2021/03/12 10:27:21;;;;;;;12.15;4.05;;;10.20;99.90;;;;;;5077198;28;20423;-79
2021/03/12 10:29:49;;;;;;;12.82;3.28;;;10.10;99.90;;;;;;5077563;28;20112;-79
2021/03/12 10:32:16;;;;;;;9.27;3.60;;;10.20;99.90;;;;;;5077611;28;20059;-79
2021/03/12 10:34:49;;;;;;;15.73;3.67;;;10.30;99.90;;;;;;5077014;28;20084;-79
2021/03/12 10:37:17;;;;;;;13.50;3.63;;;10.30;99.90;;;;;;5077222;28;20453;-79
2021/03/12 10:39:45;;;;;;;11.23;3.58;;;10.30;99.90;;;;;;5077383;28;20512;-79
2021/03/12 10:42:12;;;;;;;13.73;3.78;;;10.40;99.90;;;;;;5077560;28;20084;-79
2021/03/12 10:44:53;;;;;;;12.82;3.70;;;10.60;99.90;;;;;;5076661;28;20128;-79
2021/03/12 10:47:21;;;;;;;14.07;3.85;;;10.80;99.90;;;;;;5076295;28;20123;-78
2021/03/12 10:49:47;;;;;;;12.60;3.17;;;11.00;99.90;;;;;;5096323;22;20144;-79
2021/03/12 10:52:24;;;;;;;13.63;3.90;;;11.30;99.90;;;;;;5078992;28;20076;-80
2021/03/12 10:54:51;;;;;;;15.48;3.80;;;11.30;99.90;;;;;;5078785;28;20056;-80
2021/03/12 10:57:18;;;;;;;14.20;4.07;;;11.30;99.90;;;;;;5079455;28;20102;-80
2021/03/12 10:59:56;;;;;;;13.40;3.55;;;11.30;99.90;;;;;;5077714;28;20108;-81
2021/03/12 11:02:32;;;;;;;17.80;4.50;;;11.30;99.90;;;;;;5079675;28;20048;-81
2021/03/12 11:04:59;;;;;;;9.65;3.33;;;11.40;99.90;;;;;;5069649;28;20044;-81
2021/03/12 11:08:01;;;;;;;10.95;3.53;;;11.30;99.90;;;;;;5102459;28;20080;-79
2021/03/12 11:22:18;;;;;;;9.68;3.42;;;11.40;99.90;;;;;;4962330;28;20532;-81
2021/03/12 11:25:00;;;;;;;10.35;3.42;;;11.60;99.90;;;;;;5037628;28;20047;-78
2021/03/12 11:27:32;;;;;;;15.55;3.85;;;11.80;99.90;;;;;;5081408;28;20045;-79
2021/03/12 11:30:07;;;;;;;11.23;3.50;;;11.70;99.90;;;;;;5081567;28;20088;-80
2021/03/12 11:32:34;;;;;;;9.93;3.42;;;11.70;99.90;;;;;;5083128;28;20116;-78
2021/03/12 11:35:03;;;;;;;11.98;3.72;;;11.70;99.90;;;;;;5082808;28;20045;-82
2021/03/12 11:37:36;;;;;;;10.05;3.25;;;11.80;99.90;;;;;;5083782;28;20074;-81
2021/03/12 11:40:11;;;;;;;12.20;4.43;;;11.80;99.90;;;;;;5084264;28;20057;-80
2021/03/12 11:42:57;;;;;;;8.75;2.97;;;11.80;99.90;;;;;;5084400;28;20045;-79
2021/03/12 11:45:24;;;;;;;11.38;3.30;;;12.00;99.90;;;;;;5085350;28;20051;-82
2021/03/12 11:47:53;;;;;;;10.57;3.20;;;12.00;99.90;;;;;;5086386;28;20071;-79
2021/03/12 11:50:20;;;;;;;12.25;3.40;;;11.90;99.90;;;;;;5086797;28;20041;-78
2021/03/12 11:52:48;;;;;;;11.32;3.33;;;11.90;99.90;;;;;;5084468;28;20056;-81
2021/03/12 11:55:31;;;;;;;7.97;3.22;;;11.90;99.90;;;;;;5084962;28;20121;-80
2021/03/12 11:58:18;;;;;;;11.32;3.30;;;11.90;99.90;;;;;;5085486;28;20079;-82
2021/03/12 12:01:07;;;;;;;8.85;3.15;;;11.80;99.90;;;;;;5088814;28;20048;-80
2021/03/12 12:03:36;;;;;;;9.82;3.20;;;11.80;99.90;;;;;;5087594;28;20079;-79
2021/03/12 12:06:03;;;;;;;16.10;3.80;;;11.70;99.90;;;;;;5083646;28;20052;-81
2021/03/12 12:08:30;;;;;;;10.70;3.33;;;11.70;99.90;;;;;;5084435;28;20048;-83
2021/03/12 12:10:57;;;;;;;11.15;3.75;;;11.80;99.90;;;;;;5083738;28;20056;-82
2021/03/12 12:13:23;;;;;;;8.95;3.53;;;11.80;99.90;;;;;;5083869;28;20059;-84
2021/03/12 12:15:51;;;;;;;9.57;3.05;;;11.90;99.90;;;;;;5082446;28;20136;-80
2021/03/12 12:18:20;;;;;;;10.07;3.10;;;12.00;99.90;;;;;;5084809;28;20056;-79
2021/03/12 12:20:48;;;;;;;8.57;3.00;;;12.10;99.90;;;;;;5084939;28;20060;-83
2021/03/12 12:23:15;;;;;;;10.73;2.97;;;12.20;99.90;;;;;;5083170;28;20514;-79
2021/03/12 12:25:43;;;;;;;10.70;3.30;;;12.40;99.90;;;;;;5078664;28;20104;-79
2021/03/12 12:28:14;;;;;;;12.43;3.72;;;12.50;99.90;;;;;;5081259;28;20088;-78
2021/03/12 12:30:40;;;;;;;10.93;3.08;;;12.50;99.90;;;;;;5081227;28;20048;-79
2021/03/12 12:33:07;;;;;;;8.35;2.97;;;12.50;99.90;;;;;;5094682;28;20059;-80
2021/03/12 12:35:34;;;;;;;10.73;3.00;;;12.30;99.90;;;;;;5098751;28;20063;-79
2021/03/12 12:38:00;;;;;;;9.43;2.95;;;12.30;99.90;;;;;;5101455;28;20083;-80
2021/03/12 12:40:27;;;;;;;8.65;2.75;;;12.20;99.90;;;;;;5102120;28;20112;-80
2021/03/12 12:42:54;;;;;;;12.43;3.60;;;12.00;99.90;;;;;;5102311;28;20044;-80
2021/03/12 12:45:21;;;;;;;12.13;3.45;;;11.90;99.90;;;;;;5101859;28;20040;-81
2021/03/12 12:47:47;;;;;;;14.43;3.78;;;11.90;99.90;;;;;;5101378;28;20084;-81
2021/03/12 12:50:15;;;;;;;11.43;3.05;;;11.90;99.90;;;;;;5102248;28;20317;-81
2021/03/12 12:52:42;;;;;;;13.20;3.30;;;11.80;99.90;;;;;;5099449;28;20472;-82
2021/03/12 12:55:10;;;;;;;12.15;3.25;;;12.00;99.90;;;;;;5099427;28;20077;-82
2021/03/12 12:57:38;;;;;;;12.40;3.20;;;12.20;99.90;;;;;;5102979;28;20079;-80
2021/03/12 13:00:07;;;;;;;13.20;3.60;;;12.30;99.90;;;;;;5103649;28;20146;-81
2021/03/12 13:02:34;;;;;;;10.82;3.10;;;12.30;99.90;;;;;;5103606;28;20441;-80
2021/03/12 13:05:01;;;;;;;12.10;3.25;;;12.40;99.90;;;;;;5102978;28;20062;-80
2021/03/12 13:07:27;;;;;;;13.93;4.20;;;12.40;99.90;;;;;;5103209;28;20062;-79
2021/03/12 13:09:54;;;;;;;13.02;4.43;;;12.50;99.90;;;;;;5103615;28;20156;-81